createdAt,value
2023-12-03T00:00:38.628Z,1
2023-12-03T00:02:21.727Z,1
2023-12-03T00:04:05.430Z,1
2023-12-03T00:07:31.845Z,0
2023-12-03T00:09:15.313Z,1
2023-12-03T00:10:58.495Z,1
2023-12-03T00:12:41.900Z,0
2023-12-03T00:14:25.196Z,1
2023-12-03T00:16:08.732Z,0
2023-12-03T00:17:52.171Z,1
2023-12-03T00:23:01.456Z,1
2023-12-03T00:24:44.844Z,1
2023-12-03T00:26:28.281Z,1
2023-12-03T00:28:11.713Z,1
2023-12-03T00:29:55.192Z,1
2023-12-03T00:31:38.399Z,1
2023-12-03T00:33:21.716Z,0
2023-12-03T00:36:48.390Z,1
2023-12-03T00:38:31.762Z,1
2023-12-03T00:40:15.201Z,0
2023-12-03T00:41:58.435Z,1
2023-12-03T00:43:41.869Z,1
2023-12-03T00:45:25.060Z,1
2023-12-03T00:47:08.764Z,1
2023-12-03T00:48:52.138Z,1
2023-12-03T00:50:35.643Z,1
2023-12-03T00:52:19.260Z,1
2023-12-03T00:54:02.406Z,1
2023-12-03T00:55:46.046Z,1
2023-12-03T00:57:29.325Z,2
2023-12-03T00:59:12.532Z,1
2023-12-03T01:00:56.079Z,0
2023-12-03T01:02:39.610Z,1
2023-12-03T01:04:23.062Z,0
2023-12-03T01:06:06.689Z,1
2023-12-03T01:07:49.836Z,1
2023-12-03T01:09:33.243Z,1
2023-12-03T01:11:16.886Z,1
2023-12-03T01:13:00.326Z,1
2023-12-03T01:14:43.740Z,1
2023-12-03T01:16:27.116Z,1
2023-12-03T01:18:10.826Z,1
2023-12-03T01:19:53.997Z,0
2023-12-03T01:21:37.316Z,1
2023-12-03T01:23:20.973Z,1
2023-12-03T01:25:04.322Z,1
2023-12-03T01:26:47.811Z,1
2023-12-03T01:28:31.214Z,1
2023-12-03T01:30:14.301Z,1
2023-12-03T01:31:58.292Z,1
2023-12-03T01:33:41.572Z,1
2023-12-03T01:35:25.057Z,1
2023-12-03T01:37:08.201Z,1
2023-12-03T01:38:51.693Z,2
2023-12-03T01:40:35.228Z,1
2023-12-03T01:42:18.530Z,1
2023-12-03T01:44:02.138Z,1
2023-12-03T01:47:28.443Z,1
2023-12-03T01:49:11.986Z,0
2023-12-03T01:50:55.351Z,0
2023-12-03T01:52:38.780Z,1
2023-12-03T01:54:22.163Z,1
2023-12-03T01:56:05.333Z,1
2023-12-03T01:57:49.041Z,1
2023-12-03T02:02:58.121Z,0
2023-12-03T02:04:41.654Z,1
2023-12-03T02:06:24.895Z,1
2023-12-03T02:08:08.346Z,1
2023-12-03T02:09:51.681Z,1
2023-12-03T02:11:34.936Z,1
2023-12-03T02:13:18.267Z,1
2023-12-03T02:15:01.782Z,1
2023-12-03T02:18:28.180Z,0
2023-12-03T02:20:11.607Z,1
2023-12-03T02:21:55.019Z,1
2023-12-03T02:23:38.317Z,1
2023-12-03T02:27:05.112Z,1
2023-12-03T02:28:48.663Z,2
2023-12-03T02:30:32.036Z,1
2023-12-03T02:32:15.636Z,1
2023-12-03T02:33:59.029Z,1
2023-12-03T02:35:42.453Z,1
2023-12-03T02:37:25.872Z,1
2023-12-03T02:39:09.296Z,1
2023-12-03T02:40:52.765Z,1
2023-12-03T02:42:36.025Z,1
2023-12-03T02:44:19.473Z,1
2023-12-03T02:47:46.021Z,1
2023-12-03T02:49:29.289Z,1
2023-12-03T02:51:12.850Z,1
2023-12-03T02:54:39.462Z,1
2023-12-03T02:56:22.852Z,1
2023-12-03T02:58:06.245Z,1
2023-12-03T02:59:49.633Z,1
2023-12-03T03:01:33.420Z,2
2023-12-03T03:03:16.752Z,0
2023-12-03T03:05:00.167Z,1
2023-12-03T03:06:43.637Z,1
2023-12-03T03:08:26.933Z,1
2023-12-03T03:10:10.356Z,1
2023-12-03T03:11:53.733Z,1
2023-12-03T03:13:37.133Z,1
2023-12-03T03:17:03.729Z,1
2023-12-03T03:18:46.992Z,1
2023-12-03T03:20:30.389Z,1
2023-12-03T03:22:13.792Z,1
2023-12-03T03:23:57.178Z,1
2023-12-03T03:25:40.598Z,1
2023-12-03T03:27:23.976Z,1
2023-12-03T03:29:07.378Z,1
2023-12-03T03:32:33.955Z,1
2023-12-03T03:34:17.253Z,1
2023-12-03T03:36:00.648Z,1
2023-12-03T03:37:44.047Z,1
2023-12-03T03:39:27.435Z,1
2023-12-03T03:41:10.851Z,1
2023-12-03T03:42:54.244Z,1
2023-12-03T03:44:37.662Z,1
2023-12-03T03:46:21.441Z,1
2023-12-03T03:48:04.741Z,1
2023-12-03T03:49:48.133Z,1
2023-12-03T03:51:31.548Z,1
2023-12-03T03:53:14.934Z,1
2023-12-03T03:54:58.329Z,0
2023-12-03T03:56:41.721Z,1
2023-12-03T03:58:25.111Z,1
2023-12-03T04:01:51.578Z,1
2023-12-03T04:03:34.997Z,1
2023-12-03T04:05:18.386Z,1
2023-12-03T04:07:01.777Z,1
2023-12-03T04:08:45.179Z,1
2023-12-03T04:10:28.575Z,1
2023-12-03T04:12:11.980Z,1
2023-12-03T04:17:21.233Z,1
2023-12-03T04:19:04.602Z,1
2023-12-03T04:20:48.080Z,1
2023-12-03T04:22:31.511Z,1
2023-12-03T04:25:58.194Z,1
2023-12-03T04:27:41.598Z,1
2023-12-03T04:32:50.828Z,2
2023-12-03T04:34:34.245Z,1
2023-12-03T04:36:17.639Z,1
2023-12-03T04:38:01.034Z,1
2023-12-03T04:39:44.432Z,1
2023-12-03T04:41:27.825Z,1
2023-12-03T04:43:11.233Z,2
2023-12-03T04:44:54.619Z,2
2023-12-03T04:46:38.353Z,1
2023-12-03T04:48:21.724Z,1
2023-12-03T04:50:05.109Z,1
2023-12-03T04:53:31.911Z,1
2023-12-03T04:55:15.302Z,1
2023-12-03T04:56:58.706Z,0
2023-12-03T04:58:42.124Z,1
2023-12-03T05:02:08.570Z,1
2023-12-03T05:03:51.984Z,1
2023-12-03T05:05:35.370Z,1
2023-12-03T05:07:18.768Z,1
2023-12-03T05:09:02.265Z,1
2023-12-03T05:10:45.588Z,2
2023-12-03T05:12:28.968Z,1
2023-12-03T05:14:12.364Z,1
2023-12-03T05:15:56.174Z,1
2023-12-03T05:17:39.532Z,1
2023-12-03T05:19:22.857Z,1
2023-12-03T05:21:06.253Z,1
2023-12-03T05:22:49.703Z,1
2023-12-03T05:24:33.052Z,1
2023-12-03T05:26:16.488Z,1
2023-12-03T05:27:59.837Z,1
2023-12-03T05:31:26.303Z,1
2023-12-03T05:33:09.723Z,1
2023-12-03T05:34:53.110Z,1
2023-12-03T05:36:36.497Z,1
2023-12-03T05:38:19.915Z,1
2023-12-03T05:40:03.296Z,1
2023-12-03T05:41:46.698Z,1
2023-12-03T05:46:55.962Z,1
2023-12-03T05:48:39.327Z,1
2023-12-03T05:50:22.738Z,1
2023-12-03T05:52:06.136Z,1
2023-12-03T05:53:49.527Z,0
2023-12-03T05:55:32.918Z,1
2023-12-03T05:57:16.326Z,1
2023-12-03T06:02:25.566Z,1
2023-12-03T06:04:08.955Z,1
2023-12-03T06:05:52.358Z,1
2023-12-03T06:07:35.741Z,0
2023-12-03T06:09:19.157Z,0
2023-12-03T06:11:02.553Z,1
2023-12-03T06:12:45.949Z,0
2023-12-03T06:16:12.412Z,1
2023-12-03T06:17:55.818Z,1
2023-12-03T06:19:39.232Z,1
2023-12-03T06:21:22.601Z,1
2023-12-03T06:23:06.189Z,1
2023-12-03T06:24:49.392Z,1
2023-12-03T06:26:32.818Z,1
2023-12-03T06:28:16.202Z,1
2023-12-03T06:31:42.795Z,1
2023-12-03T06:33:26.063Z,1
2023-12-03T06:35:09.452Z,1
2023-12-03T06:36:52.861Z,0
2023-12-03T06:38:36.252Z,1
2023-12-03T06:40:19.667Z,1
2023-12-03T06:42:03.057Z,1
2023-12-03T06:43:46.437Z,1
2023-12-03T06:47:12.955Z,1
2023-12-03T06:48:56.317Z,1
2023-12-03T06:50:39.712Z,0
2023-12-03T06:52:23.183Z,1
2023-12-03T06:54:06.534Z,1
2023-12-03T06:55:49.941Z,2
2023-12-03T06:57:33.307Z,1
2023-12-03T06:59:16.765Z,1
2023-12-03T07:01:00.409Z,1
2023-12-03T07:02:43.849Z,1
2023-12-03T07:04:27.237Z,1
2023-12-03T07:06:10.672Z,0
2023-12-03T07:07:54.034Z,2
2023-12-03T07:09:37.469Z,1
2023-12-03T07:11:20.838Z,1
2023-12-03T07:13:04.186Z,0
2023-12-03T07:16:30.847Z,2
2023-12-03T07:18:14.175Z,0
2023-12-03T07:19:57.454Z,1
2023-12-03T07:21:40.847Z,0
2023-12-03T07:23:24.243Z,0
2023-12-03T07:25:07.651Z,1
2023-12-03T07:26:51.042Z,1
2023-12-03T07:28:34.448Z,1
2023-12-03T07:32:00.904Z,1
2023-12-03T07:33:44.315Z,1
2023-12-03T07:35:27.716Z,1
2023-12-03T07:37:11.099Z,1
2023-12-03T07:38:54.494Z,1
2023-12-03T07:40:37.903Z,1
2023-12-03T07:42:21.294Z,1
2023-12-03T07:44:04.701Z,1
2023-12-03T07:45:48.421Z,1
2023-12-03T07:47:31.926Z,2
2023-12-03T07:49:15.189Z,1
2023-12-03T07:50:58.761Z,1
2023-12-03T07:52:41.994Z,1
2023-12-03T07:54:25.446Z,1
2023-12-03T07:56:08.788Z,2
2023-12-03T07:57:52.172Z,1
2023-12-03T08:01:18.631Z,2
2023-12-03T08:04:45.504Z,1
2023-12-03T08:06:28.829Z,1
2023-12-03T08:08:12.251Z,1
2023-12-03T08:09:55.634Z,1
2023-12-03T08:11:39.032Z,1
2023-12-03T08:13:22.414Z,1
2023-12-03T08:15:06.133Z,1
2023-12-03T08:16:49.536Z,1
2023-12-03T08:18:32.985Z,41
2023-12-03T08:20:16.335Z,42
2023-12-03T08:21:59.721Z,42
2023-12-03T08:23:43.111Z,44
2023-12-03T08:25:26.512Z,42
2023-12-03T08:27:10.181Z,47
2023-12-03T08:28:53.670Z,45
2023-12-03T08:30:37.044Z,39
2023-12-03T08:32:20.513Z,48
2023-12-03T08:34:03.820Z,41
2023-12-03T08:35:47.199Z,48
2023-12-03T08:37:30.611Z,66
2023-12-03T08:39:14.172Z,78
2023-12-03T08:40:57.382Z,81
2023-12-03T08:42:41.114Z,87
2023-12-03T08:44:24.572Z,92
2023-12-03T08:46:08.039Z,93
2023-12-03T08:47:51.303Z,105
2023-12-03T08:49:34.669Z,113
2023-12-03T08:51:18.089Z,117
2023-12-03T08:53:01.520Z,119
2023-12-03T08:54:44.863Z,165
2023-12-03T08:56:28.619Z,170
2023-12-03T08:58:12.035Z,193
2023-12-03T08:59:55.525Z,221
2023-12-03T09:01:38.771Z,245
2023-12-03T09:03:22.177Z,299
2023-12-03T09:05:05.558Z,316
2023-12-03T09:06:48.966Z,315
2023-12-03T09:08:32.362Z,237
2023-12-03T09:10:16.052Z,336
2023-12-03T09:11:59.472Z,310
2023-12-03T09:13:42.874Z,259
2023-12-03T09:15:26.292Z,198
2023-12-03T09:17:09.651Z,181
2023-12-03T09:18:53.039Z,177
2023-12-03T09:20:36.442Z,166
2023-12-03T09:25:45.681Z,76
2023-12-03T09:27:29.066Z,78
2023-12-03T09:29:12.480Z,80
2023-12-03T09:30:55.875Z,126
2023-12-03T09:32:39.349Z,235
2023-12-03T09:34:22.674Z,284
2023-12-03T09:36:06.063Z,240
2023-12-03T09:37:49.496Z,131
2023-12-03T09:39:33.160Z,111
2023-12-03T09:41:16.563Z,134
2023-12-03T09:42:59.959Z,209
2023-12-03T09:44:43.361Z,215
2023-12-03T09:46:26.751Z,166
2023-12-03T09:48:10.154Z,110
2023-12-03T09:49:53.561Z,68
2023-12-03T09:51:36.950Z,56
2023-12-03T09:55:03.412Z,51
2023-12-03T09:56:46.813Z,43
2023-12-03T09:58:30.218Z,35
2023-12-03T10:00:13.602Z,31
2023-12-03T10:01:57.001Z,29
2023-12-03T10:03:40.404Z,28
2023-12-03T10:05:23.801Z,28
2023-12-03T10:10:33.030Z,26
2023-12-03T10:12:16.575Z,26
2023-12-03T10:13:59.848Z,25
2023-12-03T10:15:43.240Z,25
2023-12-03T10:17:26.633Z,25
2023-12-03T10:19:10.022Z,181
2023-12-03T10:20:53.429Z,242
2023-12-03T10:24:19.894Z,65
2023-12-03T10:27:46.692Z,68
2023-12-03T10:29:30.084Z,69
2023-12-03T10:31:13.482Z,69
2023-12-03T10:32:56.880Z,69
2023-12-03T10:34:40.269Z,68
2023-12-03T10:39:49.513Z,68
2023-12-03T10:41:32.924Z,62
2023-12-03T10:43:16.318Z,58
2023-12-03T10:44:59.711Z,66
2023-12-03T10:46:43.098Z,64
2023-12-03T10:48:26.840Z,66
2023-12-03T10:50:10.230Z,67
2023-12-03T10:53:36.667Z,66
2023-12-03T10:55:19.995Z,66
2023-12-03T10:57:03.339Z,73
2023-12-03T10:58:46.665Z,75
2023-12-03T11:00:30.157Z,73
2023-12-03T11:02:13.562Z,77
2023-12-03T11:03:56.891Z,76
2023-12-03T11:07:23.501Z,78
2023-12-03T11:09:06.951Z,72
2023-12-03T11:10:50.253Z,79
2023-12-03T11:12:33.600Z,80
2023-12-03T11:14:17.141Z,80
2023-12-03T11:16:00.320Z,63
2023-12-03T11:17:43.725Z,80
2023-12-03T11:21:10.299Z,81
2023-12-03T11:22:53.483Z,81
2023-12-03T11:24:37.144Z,80
2023-12-03T11:26:20.301Z,79
2023-12-03T11:28:03.948Z,78
2023-12-03T11:29:47.419Z,77
2023-12-03T11:31:30.759Z,76
2023-12-03T11:34:57.292Z,74
2023-12-03T11:36:40.634Z,81
2023-12-03T11:38:24.046Z,80
2023-12-03T11:40:07.132Z,79
2023-12-03T11:41:50.699Z,80
2023-12-03T11:43:34.354Z,79
2023-12-03T11:45:17.320Z,77
2023-12-03T11:48:44.111Z,78
2023-12-03T11:50:27.286Z,82
2023-12-03T11:52:10.603Z,91
2023-12-03T11:53:54.354Z,90
2023-12-03T11:55:37.695Z,86
2023-12-03T11:57:21.111Z,92
2023-12-03T11:59:04.166Z,107
2023-12-03T12:00:47.965Z,112
2023-12-03T12:02:31.687Z,125
2023-12-03T12:04:14.666Z,116
2023-12-03T12:05:58.204Z,114
2023-12-03T12:07:41.656Z,118
2023-12-03T12:09:25.114Z,111
2023-12-03T12:11:08.387Z,107
2023-12-03T12:16:17.589Z,86
2023-12-03T12:18:01.067Z,85
2023-12-03T12:19:44.373Z,80
2023-12-03T12:21:27.893Z,77
2023-12-03T12:23:11.440Z,75
2023-12-03T12:26:38.025Z,72
2023-12-03T12:30:04.540Z,68
2023-12-03T12:31:47.760Z,67
2023-12-03T12:33:31.445Z,65
2023-12-03T12:35:14.847Z,64
2023-12-03T12:36:58.252Z,63
2023-12-03T12:38:41.613Z,63
2023-12-03T12:40:24.989Z,63
2023-12-03T12:43:51.319Z,62
2023-12-03T12:45:34.749Z,62
2023-12-03T12:47:18.327Z,62
2023-12-03T12:49:01.638Z,62
2023-12-03T12:50:45.026Z,63
2023-12-03T12:52:28.463Z,64
2023-12-03T12:54:11.907Z,64
2023-12-03T12:57:38.169Z,65
2023-12-03T12:59:21.671Z,65
2023-12-03T13:01:05.089Z,66
2023-12-03T13:02:48.584Z,65
2023-12-03T13:04:32.059Z,64
2023-12-03T13:06:15.284Z,65
2023-12-03T13:07:58.456Z,63
2023-12-03T13:09:41.837Z,62
2023-12-03T13:11:25.879Z,61
2023-12-03T13:13:09.274Z,60
2023-12-03T13:14:52.715Z,60
2023-12-03T13:16:36.012Z,59
2023-12-03T13:18:19.303Z,58
2023-12-03T13:20:02.846Z,56
2023-12-03T13:21:45.945Z,55
2023-12-03T13:25:12.719Z,52
2023-12-03T13:26:56.016Z,51
2023-12-03T13:28:39.542Z,45
2023-12-03T13:30:22.642Z,46
2023-12-03T13:32:05.993Z,45
2023-12-03T13:33:49.694Z,43
2023-12-03T13:35:33.125Z,43
2023-12-03T13:37:16.461Z,43
2023-12-03T13:39:00.352Z,43
2023-12-03T13:40:43.644Z,41
2023-12-03T13:42:27.002Z,41
2023-12-03T13:44:10.081Z,42
2023-12-03T13:45:53.713Z,41
2023-12-03T13:47:37.198Z,40
2023-12-03T13:49:20.266Z,39
2023-12-03T13:54:29.803Z,34
2023-12-03T13:56:13.055Z,34
2023-12-03T13:57:56.615Z,32
2023-12-03T13:59:40.084Z,31
2023-12-03T14:01:23.477Z,31
2023-12-03T14:03:06.840Z,29
2023-12-03T14:04:50.159Z,29
2023-12-03T14:08:16.693Z,29
2023-12-03T14:09:59.957Z,27
2023-12-03T14:11:43.153Z,27
2023-12-03T14:13:26.651Z,26
2023-12-03T14:15:10.289Z,26
2023-12-03T14:16:53.678Z,24
2023-12-03T14:18:37.043Z,23
2023-12-03T14:22:03.528Z,23
2023-12-03T14:23:46.940Z,23
2023-12-03T14:25:30.040Z,22
2023-12-03T14:27:13.714Z,21
2023-12-03T14:28:57.108Z,21
2023-12-03T14:30:40.586Z,21
2023-12-03T14:32:23.852Z,20
2023-12-03T14:35:50.422Z,20
2023-12-03T14:37:33.509Z,19
2023-12-03T14:39:17.086Z,19
2023-12-03T14:41:00.536Z,18
2023-12-03T14:42:43.675Z,18
2023-12-03T14:44:27.055Z,17
2023-12-03T14:46:10.765Z,16
2023-12-03T14:47:54.214Z,15
2023-12-03T14:49:37.802Z,14
2023-12-03T14:51:20.964Z,14
2023-12-03T14:53:04.390Z,13
2023-12-03T14:54:47.758Z,12
2023-12-03T14:56:31.417Z,12
2023-12-03T14:58:14.787Z,12
2023-12-03T14:59:58.104Z,11
2023-12-03T15:01:41.538Z,11
2023-12-03T15:03:25.429Z,10
2023-12-03T15:05:08.734Z,10
2023-12-03T15:06:52.085Z,9
2023-12-03T15:08:35.234Z,8
2023-12-03T15:10:18.996Z,8
2023-12-03T15:12:02.311Z,8
2023-12-03T15:13:45.797Z,7
2023-12-03T15:18:54.951Z,6
2023-12-03T15:20:38.376Z,5
2023-12-03T15:22:21.737Z,5
2023-12-03T15:24:05.183Z,5
2023-12-03T15:25:48.527Z,5
2023-12-03T15:27:31.945Z,5
2023-12-03T15:29:15.284Z,5
2023-12-03T15:32:41.958Z,4
2023-12-03T15:34:25.231Z,3
2023-12-03T15:36:08.621Z,3
2023-12-03T15:37:52.032Z,3
2023-12-03T15:39:35.412Z,2
2023-12-03T15:41:18.797Z,2
2023-12-03T15:43:02.097Z,2
2023-12-03T15:46:28.698Z,1
2023-12-03T15:48:11.938Z,1
2023-12-03T15:49:55.169Z,0
2023-12-03T15:51:38.882Z,1
2023-12-03T15:53:22.144Z,1
2023-12-03T15:55:05.626Z,1
2023-12-03T15:56:48.943Z,1
2023-12-03T16:00:15.290Z,1
2023-12-03T16:01:58.635Z,0
2023-12-03T16:03:42.297Z,1
2023-12-03T16:05:25.794Z,0
2023-12-03T16:07:08.934Z,1
2023-12-03T16:08:52.467Z,1
2023-12-03T16:10:35.925Z,0
2023-12-03T16:14:02.409Z,1
2023-12-03T16:15:45.867Z,1
2023-12-03T16:17:28.882Z,1
2023-12-03T16:19:12.614Z,2
2023-12-03T16:20:55.746Z,1
2023-12-03T16:22:39.239Z,1
2023-12-03T16:24:22.479Z,0
2023-12-03T16:26:05.874Z,1
2023-12-03T16:27:49.904Z,1
2023-12-03T16:29:33.345Z,1
2023-12-03T16:31:16.670Z,1
2023-12-03T16:33:00.077Z,1
2023-12-03T16:34:43.487Z,1
2023-12-03T16:36:26.544Z,1
2023-12-03T16:38:10.276Z,1
2023-12-03T16:41:36.755Z,1
2023-12-03T16:43:19.837Z,1
2023-12-03T16:45:03.224Z,1
2023-12-03T16:46:46.987Z,0
2023-12-03T16:48:30.256Z,1
2023-12-03T16:50:13.707Z,1
2023-12-03T16:51:57.036Z,1
2023-12-03T16:57:06.376Z,0
2023-12-03T16:58:49.447Z,1
2023-12-03T17:00:32.864Z,1
2023-12-03T17:02:16.417Z,1
2023-12-03T17:03:59.856Z,1
2023-12-03T17:05:43.326Z,1
2023-12-03T17:07:26.729Z,1
2023-12-03T17:10:53.212Z,0
2023-12-03T17:12:36.552Z,1
2023-12-03T17:14:19.959Z,1
2023-12-03T17:16:03.159Z,1
2023-12-03T17:17:46.829Z,1
2023-12-03T17:19:29.891Z,7
2023-12-03T17:21:13.595Z,16
2023-12-03T17:22:56.908Z,8
2023-12-03T17:24:40.684Z,7
2023-12-03T17:26:24.098Z,10
2023-12-03T17:28:07.485Z,8
2023-12-03T17:29:50.881Z,9
2023-12-03T17:31:34.310Z,9
2023-12-03T17:33:17.439Z,9
2023-12-03T17:35:01.131Z,9
2023-12-03T17:40:10.278Z,9
2023-12-03T17:41:53.778Z,10
2023-12-03T17:43:37.194Z,10
2023-12-03T17:45:20.473Z,9
2023-12-03T17:47:03.890Z,9
2023-12-03T17:48:47.280Z,9
2023-12-03T17:50:30.727Z,9
2023-12-03T17:55:39.787Z,9
2023-12-03T17:57:23.080Z,10
2023-12-03T17:59:06.555Z,10
2023-12-03T18:00:50.175Z,9
2023-12-03T18:02:33.516Z,10
2023-12-03T18:04:16.637Z,9
2023-12-03T18:06:00.309Z,10
2023-12-03T18:07:43.831Z,9
2023-12-03T18:11:10.177Z,10
2023-12-03T18:12:53.283Z,9
2023-12-03T18:14:36.941Z,9
2023-12-03T18:16:20.097Z,10
2023-12-03T18:18:03.587Z,9
2023-12-03T18:19:47.284Z,9
2023-12-03T18:21:30.608Z,9
2023-12-03T18:23:14.004Z,9
2023-12-03T18:24:57.683Z,9
2023-12-03T18:26:41.087Z,9
2023-12-03T18:28:24.172Z,7
2023-12-03T18:30:07.577Z,9
2023-12-03T18:31:51.219Z,10
2023-12-03T18:33:34.673Z,9
2023-12-03T18:35:17.965Z,9
2023-12-03T18:37:01.436Z,9
2023-12-03T18:40:27.622Z,9
2023-12-03T18:42:11.283Z,9
2023-12-03T18:43:54.525Z,10
2023-12-03T18:45:38.066Z,9
2023-12-03T18:47:21.224Z,9
2023-12-03T18:49:04.886Z,9
2023-12-03T18:50:48.375Z,9
2023-12-03T18:52:31.731Z,5
2023-12-03T18:55:58.260Z,9
2023-12-03T18:57:41.284Z,10
2023-12-03T18:59:24.687Z,9
2023-12-03T19:01:08.419Z,9
2023-12-03T19:02:51.847Z,9
2023-12-03T19:04:35.216Z,9
2023-12-03T19:06:18.563Z,9
2023-12-03T19:08:01.994Z,10
2023-12-03T19:11:28.425Z,9
2023-12-03T19:13:11.781Z,9
2023-12-03T19:14:55.313Z,9
2023-12-03T19:16:38.586Z,10
2023-12-03T19:18:22.002Z,9
2023-12-03T19:20:05.117Z,9
2023-12-03T19:21:48.841Z,9
2023-12-03T19:23:31.909Z,10
2023-12-03T19:25:16.005Z,9
2023-12-03T19:26:59.361Z,9
2023-12-03T19:28:42.690Z,9
2023-12-03T19:30:26.107Z,10
2023-12-03T19:32:09.459Z,9
2023-12-03T19:33:52.936Z,9
2023-12-03T19:35:36.411Z,9
2023-12-03T19:37:19.722Z,9
2023-12-03T19:40:46.186Z,8
2023-12-03T19:42:29.290Z,8
2023-12-03T19:44:12.906Z,9
2023-12-03T19:45:56.403Z,9
2023-12-03T19:47:39.674Z,9
2023-12-03T19:49:23.217Z,9
2023-12-03T19:51:06.492Z,9
2023-12-03T19:52:49.898Z,9
2023-12-03T19:56:16.484Z,9
2023-12-03T19:57:59.561Z,9
2023-12-03T19:59:42.901Z,9
2023-12-03T20:01:26.553Z,9
2023-12-03T20:03:10.017Z,9
2023-12-03T20:04:53.482Z,9
2023-12-03T20:06:36.874Z,9
2023-12-03T20:10:03.363Z,9
2023-12-03T20:11:46.703Z,10
2023-12-03T20:13:30.154Z,9
2023-12-03T20:15:13.455Z,9
2023-12-03T20:16:56.925Z,10
2023-12-03T20:18:40.291Z,9
2023-12-03T20:20:23.640Z,9
2023-12-03T20:22:07.061Z,9
2023-12-03T20:25:33.522Z,9
2023-12-03T20:27:16.972Z,9
2023-12-03T20:29:00.170Z,9
2023-12-03T20:30:43.429Z,9
2023-12-03T20:32:26.822Z,9
2023-12-03T20:34:10.206Z,9
2023-12-03T20:35:53.868Z,17
2023-12-03T20:41:03.322Z,9
2023-12-03T20:42:46.618Z,9
2023-12-03T20:44:30.023Z,9
2023-12-03T20:46:13.326Z,10
2023-12-03T20:47:56.774Z,9
2023-12-03T20:49:40.134Z,9
2023-12-03T20:51:23.573Z,10
2023-12-03T20:53:06.956Z,9
2023-12-03T20:56:33.510Z,9
2023-12-03T20:58:16.808Z,9
2023-12-03T21:00:00.183Z,9
2023-12-03T21:01:43.630Z,9
2023-12-03T21:03:26.701Z,9
2023-12-03T21:05:10.081Z,9
2023-12-03T21:06:53.806Z,10
2023-12-03T21:08:37.068Z,9
2023-12-03T21:12:03.667Z,9
2023-12-03T21:13:46.881Z,9
2023-12-03T21:15:30.444Z,9
2023-12-03T21:17:13.700Z,9
2023-12-03T21:18:57.279Z,9
2023-12-03T21:20:40.621Z,9
2023-12-03T21:22:24.107Z,9
2023-12-03T21:24:07.474Z,9
2023-12-03T21:27:33.928Z,9
2023-12-03T21:29:17.256Z,9
2023-12-03T21:31:00.695Z,9
2023-12-03T21:32:43.949Z,9
2023-12-03T21:34:27.211Z,9
2023-12-03T21:36:10.916Z,9
2023-12-03T21:37:54.313Z,9
2023-12-03T21:39:37.755Z,9
2023-12-03T21:41:21.466Z,9
2023-12-03T21:43:04.799Z,9
2023-12-03T21:44:48.231Z,9
2023-12-03T21:46:31.566Z,9
2023-12-03T21:48:14.957Z,10
2023-12-03T21:49:58.384Z,9
2023-12-03T21:51:41.814Z,9
2023-12-03T21:53:25.252Z,9
2023-12-03T21:56:51.676Z,9
2023-12-03T21:58:34.755Z,9
2023-12-03T22:00:18.256Z,9
2023-12-03T22:02:01.830Z,8
2023-12-03T22:03:45.159Z,10
2023-12-03T22:05:28.623Z,9
2023-12-03T22:07:11.943Z,7
2023-12-03T22:12:21.265Z,8
2023-12-03T22:14:04.739Z,9
2023-12-03T22:15:48.044Z,9
2023-12-03T22:17:31.462Z,9
2023-12-03T22:19:14.550Z,9
2023-12-03T22:20:57.940Z,8
2023-12-03T22:22:41.351Z,9
2023-12-03T22:24:25.083Z,9
2023-12-03T22:26:08.763Z,8
2023-12-03T22:27:52.258Z,9
2023-12-03T22:29:35.565Z,9
2023-12-03T22:31:18.993Z,9
2023-12-03T22:33:02.325Z,8
2023-12-03T22:34:45.748Z,10
2023-12-03T22:36:28.804Z,9
2023-12-03T22:38:12.541Z,10
2023-12-03T22:39:56.289Z,9
2023-12-03T22:41:39.623Z,9
2023-12-03T22:43:22.892Z,8
2023-12-03T22:46:49.840Z,7
2023-12-03T22:48:33.268Z,8
2023-12-03T22:50:16.591Z,1
2023-12-03T22:52:00.000Z,1
2023-12-03T22:53:43.791Z,1
2023-12-03T22:55:27.200Z,1
2023-12-03T22:57:10.507Z,1
2023-12-03T22:58:53.892Z,0
2023-12-03T23:00:37.298Z,1
2023-12-03T23:02:20.669Z,1
2023-12-03T23:04:04.154Z,1
2023-12-03T23:05:47.194Z,1
2023-12-03T23:09:14.011Z,1
2023-12-03T23:10:57.410Z,1
2023-12-03T23:12:40.828Z,1
2023-12-03T23:14:24.166Z,1
2023-12-03T23:16:07.240Z,1
2023-12-03T23:17:50.958Z,1
2023-12-03T23:19:34.057Z,1
2023-12-03T23:24:43.571Z,1
2023-12-03T23:26:27.006Z,1
2023-12-03T23:28:10.420Z,1
2023-12-03T23:29:53.721Z,1
2023-12-03T23:31:37.016Z,1
2023-12-03T23:33:20.570Z,1
2023-12-03T23:35:03.928Z,1
2023-12-03T23:38:30.548Z,1
2023-12-03T23:40:13.836Z,1
2023-12-03T23:41:57.295Z,1
2023-12-03T23:43:40.608Z,1
2023-12-03T23:45:24.028Z,1
2023-12-03T23:47:07.516Z,1
2023-12-03T23:48:50.814Z,1
2023-12-03T23:50:34.277Z,1
2023-12-03T23:52:17.969Z,1
2023-12-03T23:54:01.330Z,1
2023-12-03T23:55:44.782Z,1
2023-12-03T23:57:27.813Z,1
2023-12-03T23:59:11.487Z,1
